sensor_id;sensor_type;location;lat;lon;timestamp;P1;durP1;ratioP1;P2;durP2;ratioP2
74196;SDS011;62555;52.678;4.900;2023-03-03T00:00:49;1.55;;;1.40;;
74196;SDS011;62555;52.678;4.900;2023-03-03T00:03:16;2.63;;;1.90;;
74196;SDS011;62555;52.678;4.900;2023-03-03T00:05:43;2.90;;;1.60;;
74196;SDS011;62555;52.678;4.900;2023-03-03T00:08:09;1.95;;;1.40;;
74196;SDS011;62555;52.678;4.900;2023-03-03T00:10:34;2.00;;;1.52;;
74196;SDS011;62555;52.678;4.900;2023-03-03T00:13:00;1.73;;;1.10;;
74196;SDS011;62555;52.678;4.900;2023-03-03T00:15:26;2.22;;;1.27;;
74196;SDS011;62555;52.678;4.900;2023-03-03T00:17:52;2.70;;;1.50;;
74196;SDS011;62555;52.678;4.900;2023-03-03T00:22:51;1.48;;;1.33;;
74196;SDS011;62555;52.678;4.900;2023-03-03T00:25:29;1.52;;;1.08;;
74196;SDS011;62555;52.678;4.900;2023-03-03T00:27:59;1.90;;;1.48;;
74196;SDS011;62555;52.678;4.900;2023-03-03T00:30:26;1.42;;;1.13;;
74196;SDS011;62555;52.678;4.900;2023-03-03T00:32:52;2.28;;;1.10;;
74196;SDS011;62555;52.678;4.900;2023-03-03T00:35:27;1.77;;;1.02;;
74196;SDS011;62555;52.678;4.900;2023-03-03T00:38:00;2.38;;;1.13;;
74196;SDS011;62555;52.678;4.900;2023-03-03T00:40:37;2.20;;;1.30;;
74196;SDS011;62555;52.678;4.900;2023-03-03T00:43:16;2.13;;;1.10;;
74196;SDS011;62555;52.678;4.900;2023-03-03T00:45:45;2.05;;;1.25;;
74196;SDS011;62555;52.678;4.900;2023-03-03T00:51:00;1.58;;;1.08;;
74196;SDS011;62555;52.678;4.900;2023-03-03T00:53:27;1.20;;;0.88;;
74196;SDS011;62555;52.678;4.900;2023-03-03T00:55:54;1.40;;;1.10;;
74196;SDS011;62555;52.678;4.900;2023-03-03T00:58:20;1.52;;;0.77;;
74196;SDS011;62555;52.678;4.900;2023-03-03T01:00:50;1.95;;;1.05;;
74196;SDS011;62555;52.678;4.900;2023-03-03T01:03:21;2.38;;;1.10;;
74196;SDS011;62555;52.678;4.900;2023-03-03T01:05:49;1.50;;;1.02;;
74196;SDS011;62555;52.678;4.900;2023-03-03T01:08:15;1.75;;;0.93;;
74196;SDS011;62555;52.678;4.900;2023-03-03T01:10:42;1.90;;;0.98;;
74196;SDS011;62555;52.678;4.900;2023-03-03T01:13:10;1.85;;;1.02;;
74196;SDS011;62555;52.678;4.900;2023-03-03T01:15:36;2.25;;;1.10;;
74196;SDS011;62555;52.678;4.900;2023-03-03T01:18:03;1.60;;;0.88;;
74196;SDS011;62555;52.678;4.900;2023-03-03T01:20:28;1.48;;;0.90;;
74196;SDS011;62555;52.678;4.900;2023-03-03T01:22:53;0.98;;;0.80;;
74196;SDS011;62555;52.678;4.900;2023-03-03T01:25:19;1.20;;;0.98;;
74196;SDS011;62555;52.678;4.900;2023-03-03T01:27:44;1.45;;;0.80;;
74196;SDS011;62555;52.678;4.900;2023-03-03T01:30:10;1.00;;;0.75;;
74196;SDS011;62555;52.678;4.900;2023-03-03T01:32:35;1.20;;;0.80;;
74196;SDS011;62555;52.678;4.900;2023-03-03T01:35:01;2.05;;;1.30;;
74196;SDS011;62555;52.678;4.900;2023-03-03T01:37:26;0.77;;;0.55;;
74196;SDS011;62555;52.678;4.900;2023-03-03T01:39:52;1.42;;;0.60;;
74196;SDS011;62555;52.678;4.900;2023-03-03T01:42:18;1.45;;;0.77;;
74196;SDS011;62555;52.678;4.900;2023-03-03T01:44:44;2.08;;;0.80;;
74196;SDS011;62555;52.678;4.900;2023-03-03T01:55:02;1.40;;;0.63;;
74196;SDS011;62555;52.678;4.900;2023-03-03T01:57:31;1.05;;;0.60;;
74196;SDS011;62555;52.678;4.900;2023-03-03T01:59:57;1.35;;;0.60;;
74196;SDS011;62555;52.678;4.900;2023-03-03T02:02:24;1.15;;;0.65;;
74196;SDS011;62555;52.678;4.900;2023-03-03T02:04:51;0.88;;;0.70;;
74196;SDS011;62555;52.678;4.900;2023-03-03T02:07:17;0.95;;;0.57;;
74196;SDS011;62555;52.678;4.900;2023-03-03T02:09:46;0.70;;;0.40;;
74196;SDS011;62555;52.678;4.900;2023-03-03T02:14:43;0.50;;;0.30;;
74196;SDS011;62555;52.678;4.900;2023-03-03T02:17:08;1.63;;;0.88;;
74196;SDS011;62555;52.678;4.900;2023-03-03T02:22:08;0.93;;;0.50;;
74196;SDS011;62555;52.678;4.900;2023-03-03T02:24:34;1.45;;;0.60;;
74196;SDS011;62555;52.678;4.900;2023-03-03T02:27:03;1.02;;;0.93;;
74196;SDS011;62555;52.678;4.900;2023-03-03T02:29:29;1.30;;;1.13;;
74196;SDS011;62555;52.678;4.900;2023-03-03T02:31:54;0.90;;;0.47;;
74196;SDS011;62555;52.678;4.900;2023-03-03T02:34:19;2.15;;;0.63;;
74196;SDS011;62555;52.678;4.900;2023-03-03T02:36:45;1.38;;;0.50;;
74196;SDS011;62555;52.678;4.900;2023-03-03T02:44:24;1.00;;;0.60;;
74196;SDS011;62555;52.678;4.900;2023-03-03T02:46:52;0.70;;;0.47;;
74196;SDS011;62555;52.678;4.900;2023-03-03T02:49:20;0.55;;;0.30;;
74196;SDS011;62555;52.678;4.900;2023-03-03T02:51:47;0.70;;;0.55;;
74196;SDS011;62555;52.678;4.900;2023-03-03T02:54:14;0.65;;;0.50;;
74196;SDS011;62555;52.678;4.900;2023-03-03T02:59:05;0.40;;;0.40;;
74196;SDS011;62555;52.678;4.900;2023-03-03T03:01:31;0.57;;;0.47;;
74196;SDS011;62555;52.678;4.900;2023-03-03T03:04:01;0.60;;;0.32;;
74196;SDS011;62555;52.678;4.900;2023-03-03T03:06:31;0.80;;;0.30;;
74196;SDS011;62555;52.678;4.900;2023-03-03T03:08:56;1.10;;;0.47;;
74196;SDS011;62555;52.678;4.900;2023-03-03T03:11:21;1.00;;;0.55;;
74196;SDS011;62555;52.678;4.900;2023-03-03T03:13:47;0.77;;;0.77;;
74196;SDS011;62555;52.678;4.900;2023-03-03T03:16:12;1.00;;;0.40;;
74196;SDS011;62555;52.678;4.900;2023-03-03T03:18:38;0.40;;;0.32;;
74196;SDS011;62555;52.678;4.900;2023-03-03T03:21:07;0.60;;;0.50;;
74196;SDS011;62555;52.678;4.900;2023-03-03T03:23:36;0.85;;;0.50;;
74196;SDS011;62555;52.678;4.900;2023-03-03T03:26:02;0.65;;;0.50;;
74196;SDS011;62555;52.678;4.900;2023-03-03T03:28:27;1.55;;;0.40;;
74196;SDS011;62555;52.678;4.900;2023-03-03T03:30:53;0.38;;;0.30;;
74196;SDS011;62555;52.678;4.900;2023-03-03T03:33:18;0.57;;;0.43;;
74196;SDS011;62555;52.678;4.900;2023-03-03T03:35:44;1.75;;;0.35;;
74196;SDS011;62555;52.678;4.900;2023-03-03T03:38:11;0.32;;;0.32;;
74196;SDS011;62555;52.678;4.900;2023-03-03T03:40:37;0.65;;;0.40;;
74196;SDS011;62555;52.678;4.900;2023-03-03T03:43:03;1.20;;;0.40;;
74196;SDS011;62555;52.678;4.900;2023-03-03T03:45:28;0.47;;;0.38;;
74196;SDS011;62555;52.678;4.900;2023-03-03T03:47:54;1.38;;;0.63;;
74196;SDS011;62555;52.678;4.900;2023-03-03T03:50:19;0.70;;;0.52;;
74196;SDS011;62555;52.678;4.900;2023-03-03T03:52:44;0.40;;;0.32;;
74196;SDS011;62555;52.678;4.900;2023-03-03T03:55:10;0.70;;;0.38;;
74196;SDS011;62555;52.678;4.900;2023-03-03T03:57:35;0.52;;;0.38;;
74196;SDS011;62555;52.678;4.900;2023-03-03T04:00:01;0.93;;;0.57;;
74196;SDS011;62555;52.678;4.900;2023-03-03T04:02:26;1.48;;;0.47;;
74196;SDS011;62555;52.678;4.900;2023-03-03T04:04:52;0.73;;;0.30;;
74196;SDS011;62555;52.678;4.900;2023-03-03T04:07:17;0.20;;;0.15;;
74196;SDS011;62555;52.678;4.900;2023-03-03T04:09:42;1.10;;;0.40;;
74196;SDS011;62555;52.678;4.900;2023-03-03T04:12:08;0.47;;;0.30;;
74196;SDS011;62555;52.678;4.900;2023-03-03T04:14:33;0.50;;;0.30;;
74196;SDS011;62555;52.678;4.900;2023-03-03T04:16:58;0.25;;;0.25;;
74196;SDS011;62555;52.678;4.900;2023-03-03T04:19:24;0.40;;;0.28;;
74196;SDS011;62555;52.678;4.900;2023-03-03T04:21:50;0.80;;;0.30;;
74196;SDS011;62555;52.678;4.900;2023-03-03T04:24:15;0.60;;;0.40;;
74196;SDS011;62555;52.678;4.900;2023-03-03T04:26:40;0.35;;;0.32;;
74196;SDS011;62555;52.678;4.900;2023-03-03T04:29:06;0.30;;;0.20;;
74196;SDS011;62555;52.678;4.900;2023-03-03T04:31:31;1.02;;;0.32;;
74196;SDS011;62555;52.678;4.900;2023-03-03T04:33:56;0.60;;;0.35;;
74196;SDS011;62555;52.678;4.900;2023-03-03T04:36:22;0.20;;;0.20;;
74196;SDS011;62555;52.678;4.900;2023-03-03T04:38:47;0.45;;;0.25;;
74196;SDS011;62555;52.678;4.900;2023-03-03T04:41:13;0.43;;;0.25;;
74196;SDS011;62555;52.678;4.900;2023-03-03T04:43:38;0.50;;;0.30;;
74196;SDS011;62555;52.678;4.900;2023-03-03T04:46:04;0.52;;;0.28;;
74196;SDS011;62555;52.678;4.900;2023-03-03T04:48:29;1.30;;;0.40;;
74196;SDS011;62555;52.678;4.900;2023-03-03T04:50:54;0.47;;;0.20;;
74196;SDS011;62555;52.678;4.900;2023-03-03T04:53:20;0.75;;;0.38;;
74196;SDS011;62555;52.678;4.900;2023-03-03T04:55:45;1.35;;;0.50;;
74196;SDS011;62555;52.678;4.900;2023-03-03T04:58:10;0.45;;;0.30;;
74196;SDS011;62555;52.678;4.900;2023-03-03T05:00:36;1.10;;;0.30;;
74196;SDS011;62555;52.678;4.900;2023-03-03T05:03:02;0.30;;;0.28;;
74196;SDS011;62555;52.678;4.900;2023-03-03T05:05:27;0.45;;;0.20;;
74196;SDS011;62555;52.678;4.900;2023-03-03T05:07:53;0.68;;;0.30;;
74196;SDS011;62555;52.678;4.900;2023-03-03T05:10:18;0.47;;;0.32;;
74196;SDS011;62555;52.678;4.900;2023-03-03T05:12:43;0.60;;;0.30;;
74196;SDS011;62555;52.678;4.900;2023-03-03T05:15:09;0.20;;;0.10;;
74196;SDS011;62555;52.678;4.900;2023-03-03T05:17:35;0.98;;;0.20;;
74196;SDS011;62555;52.678;4.900;2023-03-03T05:20:01;1.02;;;0.30;;
74196;SDS011;62555;52.678;4.900;2023-03-03T05:22:26;1.15;;;0.22;;
74196;SDS011;62555;52.678;4.900;2023-03-03T05:24:52;1.10;;;0.30;;
74196;SDS011;62555;52.678;4.900;2023-03-03T05:27:17;0.30;;;0.15;;
74196;SDS011;62555;52.678;4.900;2023-03-03T05:29:43;0.10;;;0.10;;
74196;SDS011;62555;52.678;4.900;2023-03-03T05:32:08;1.00;;;0.30;;
74196;SDS011;62555;52.678;4.900;2023-03-03T05:34:34;0.20;;;0.20;;
74196;SDS011;62555;52.678;4.900;2023-03-03T05:36:59;0.15;;;0.15;;
74196;SDS011;62555;52.678;4.900;2023-03-03T05:39:24;0.75;;;0.20;;
74196;SDS011;62555;52.678;4.900;2023-03-03T05:41:50;0.30;;;0.20;;
74196;SDS011;62555;52.678;4.900;2023-03-03T05:44:15;0.43;;;0.20;;
74196;SDS011;62555;52.678;4.900;2023-03-03T05:46:41;0.75;;;0.40;;
74196;SDS011;62555;52.678;4.900;2023-03-03T05:49:06;0.73;;;0.30;;
74196;SDS011;62555;52.678;4.900;2023-03-03T05:51:32;0.70;;;0.30;;
74196;SDS011;62555;52.678;4.900;2023-03-03T05:53:57;0.75;;;0.38;;
74196;SDS011;62555;52.678;4.900;2023-03-03T05:56:22;0.70;;;0.20;;
74196;SDS011;62555;52.678;4.900;2023-03-03T05:58:48;0.68;;;0.50;;
74196;SDS011;62555;52.678;4.900;2023-03-03T06:01:13;0.57;;;0.30;;
74196;SDS011;62555;52.678;4.900;2023-03-03T06:03:39;0.45;;;0.10;;
74196;SDS011;62555;52.678;4.900;2023-03-03T06:06:04;0.82;;;0.38;;
74196;SDS011;62555;52.678;4.900;2023-03-03T06:08:29;0.50;;;0.20;;
74196;SDS011;62555;52.678;4.900;2023-03-03T06:10:56;1.67;;;0.40;;
74196;SDS011;62555;52.678;4.900;2023-03-03T06:13:22;0.20;;;0.20;;
74196;SDS011;62555;52.678;4.900;2023-03-03T06:15:47;0.43;;;0.38;;
74196;SDS011;62555;52.678;4.900;2023-03-03T06:18:12;0.60;;;0.20;;
74196;SDS011;62555;52.678;4.900;2023-03-03T06:20:38;1.10;;;0.32;;
74196;SDS011;62555;52.678;4.900;2023-03-03T06:23:03;0.88;;;0.40;;
74196;SDS011;62555;52.678;4.900;2023-03-03T06:25:29;1.00;;;0.40;;
74196;SDS011;62555;52.678;4.900;2023-03-03T06:27:54;0.75;;;0.30;;
74196;SDS011;62555;52.678;4.900;2023-03-03T06:30:19;0.77;;;0.30;;
74196;SDS011;62555;52.678;4.900;2023-03-03T06:32:45;0.43;;;0.20;;
74196;SDS011;62555;52.678;4.900;2023-03-03T06:35:10;0.30;;;0.30;;
74196;SDS011;62555;52.678;4.900;2023-03-03T06:37:36;0.32;;;0.30;;
74196;SDS011;62555;52.678;4.900;2023-03-03T06:40:02;0.43;;;0.25;;
74196;SDS011;62555;52.678;4.900;2023-03-03T06:42:28;1.08;;;0.35;;
74196;SDS011;62555;52.678;4.900;2023-03-03T06:44:54;0.43;;;0.32;;
74196;SDS011;62555;52.678;4.900;2023-03-03T06:47:19;0.70;;;0.30;;
74196;SDS011;62555;52.678;4.900;2023-03-03T06:49:44;0.63;;;0.63;;
74196;SDS011;62555;52.678;4.900;2023-03-03T06:52:11;0.20;;;0.20;;
74196;SDS011;62555;52.678;4.900;2023-03-03T06:54:38;0.57;;;0.30;;
74196;SDS011;62555;52.678;4.900;2023-03-03T06:57:13;0.70;;;0.30;;
74196;SDS011;62555;52.678;4.900;2023-03-03T06:59:41;0.50;;;0.22;;
74196;SDS011;62555;52.678;4.900;2023-03-03T07:02:13;0.77;;;0.60;;
74196;SDS011;62555;52.678;4.900;2023-03-03T07:04:41;0.77;;;0.43;;
74196;SDS011;62555;52.678;4.900;2023-03-03T07:07:10;0.40;;;0.40;;
74196;SDS011;62555;52.678;4.900;2023-03-03T07:09:40;1.17;;;0.30;;
74196;SDS011;62555;52.678;4.900;2023-03-03T07:12:10;1.60;;;0.70;;
74196;SDS011;62555;52.678;4.900;2023-03-03T07:14:43;1.60;;;0.30;;
74196;SDS011;62555;52.678;4.900;2023-03-03T07:17:21;0.80;;;0.40;;
74196;SDS011;62555;52.678;4.900;2023-03-03T07:19:48;0.85;;;0.30;;
74196;SDS011;62555;52.678;4.900;2023-03-03T07:24:48;0.98;;;0.40;;
74196;SDS011;62555;52.678;4.900;2023-03-03T07:29:44;1.17;;;0.30;;
74196;SDS011;62555;52.678;4.900;2023-03-03T07:32:24;0.80;;;0.30;;
74196;SDS011;62555;52.678;4.900;2023-03-03T07:34:59;1.95;;;0.40;;
74196;SDS011;62555;52.678;4.900;2023-03-03T07:39:50;0.57;;;0.40;;
74196;SDS011;62555;52.678;4.900;2023-03-03T07:45:16;1.17;;;0.47;;
74196;SDS011;62555;52.678;4.900;2023-03-03T07:47:45;0.65;;;0.40;;
74196;SDS011;62555;52.678;4.900;2023-03-03T07:50:15;1.15;;;0.70;;
74196;SDS011;62555;52.678;4.900;2023-03-03T07:52:47;0.47;;;0.40;;
74196;SDS011;62555;52.678;4.900;2023-03-03T07:55:31;0.63;;;0.55;;
74196;SDS011;62555;52.678;4.900;2023-03-03T08:03:04;1.23;;;0.30;;
74196;SDS011;62555;52.678;4.900;2023-03-03T08:05:42;0.45;;;0.40;;
74196;SDS011;62555;52.678;4.900;2023-03-03T08:15:45;1.00;;;0.40;;
74196;SDS011;62555;52.678;4.900;2023-03-03T08:21:15;0.50;;;0.40;;
74196;SDS011;62555;52.678;4.900;2023-03-03T08:23:42;1.10;;;0.57;;
74196;SDS011;62555;52.678;4.900;2023-03-03T08:26:09;0.52;;;0.30;;
74196;SDS011;62555;52.678;4.900;2023-03-03T08:28:36;0.85;;;0.47;;
74196;SDS011;62555;52.678;4.900;2023-03-03T08:31:02;0.73;;;0.40;;
74196;SDS011;62555;52.678;4.900;2023-03-03T08:33:27;0.70;;;0.70;;
74196;SDS011;62555;52.678;4.900;2023-03-03T08:35:53;0.80;;;0.70;;
74196;SDS011;62555;52.678;4.900;2023-03-03T08:38:19;1.73;;;1.20;;
74196;SDS011;62555;52.678;4.900;2023-03-03T08:40:45;1.33;;;0.70;;
74196;SDS011;62555;52.678;4.900;2023-03-03T08:43:11;1.00;;;0.80;;
74196;SDS011;62555;52.678;4.900;2023-03-03T08:45:44;1.60;;;0.88;;
74196;SDS011;62555;52.678;4.900;2023-03-03T08:48:10;1.42;;;0.93;;
74196;SDS011;62555;52.678;4.900;2023-03-03T08:50:36;2.38;;;1.15;;
74196;SDS011;62555;52.678;4.900;2023-03-03T08:53:02;1.45;;;1.20;;
74196;SDS011;62555;52.678;4.900;2023-03-03T08:55:28;1.10;;;0.90;;
74196;SDS011;62555;52.678;4.900;2023-03-03T08:57:53;1.17;;;0.93;;
74196;SDS011;62555;52.678;4.900;2023-03-03T09:00:19;1.27;;;0.85;;
74196;SDS011;62555;52.678;4.900;2023-03-03T09:02:44;1.52;;;1.20;;
74196;SDS011;62555;52.678;4.900;2023-03-03T09:05:10;1.83;;;1.17;;
74196;SDS011;62555;52.678;4.900;2023-03-03T09:07:36;1.30;;;1.05;;
74196;SDS011;62555;52.678;4.900;2023-03-03T09:10:02;1.70;;;0.95;;
74196;SDS011;62555;52.678;4.900;2023-03-03T09:12:28;2.55;;;1.10;;
74196;SDS011;62555;52.678;4.900;2023-03-03T09:14:57;1.50;;;1.17;;
74196;SDS011;62555;52.678;4.900;2023-03-03T09:17:25;1.48;;;1.00;;
74196;SDS011;62555;52.678;4.900;2023-03-03T09:19:58;1.20;;;0.90;;
74196;SDS011;62555;52.678;4.900;2023-03-03T09:22:31;1.30;;;1.00;;
74196;SDS011;62555;52.678;4.900;2023-03-03T09:25:01;1.55;;;0.80;;
74196;SDS011;62555;52.678;4.900;2023-03-03T09:27:31;0.82;;;0.70;;
74196;SDS011;62555;52.678;4.900;2023-03-03T09:30:00;1.08;;;0.85;;
74196;SDS011;62555;52.678;4.900;2023-03-03T09:32:33;1.40;;;0.88;;
74196;SDS011;62555;52.678;4.900;2023-03-03T09:35:22;1.10;;;0.98;;
74196;SDS011;62555;52.678;4.900;2023-03-03T09:37:48;1.17;;;0.70;;
74196;SDS011;62555;52.678;4.900;2023-03-03T09:43:07;1.02;;;0.70;;
74196;SDS011;62555;52.678;4.900;2023-03-03T09:51:08;1.15;;;0.75;;
74196;SDS011;62555;52.678;4.900;2023-03-03T09:53:41;0.70;;;0.70;;
74196;SDS011;62555;52.678;4.900;2023-03-03T09:56:18;1.55;;;0.73;;
74196;SDS011;62555;52.678;4.900;2023-03-03T10:07:34;1.20;;;0.80;;
74196;SDS011;62555;52.678;4.900;2023-03-03T10:12:43;1.58;;;0.75;;
74196;SDS011;62555;52.678;4.900;2023-03-03T10:20:44;1.67;;;0.85;;
74196;SDS011;62555;52.678;4.900;2023-03-03T10:23:17;1.42;;;0.80;;
74196;SDS011;62555;52.678;4.900;2023-03-03T10:31:10;1.75;;;0.80;;
74196;SDS011;62555;52.678;4.900;2023-03-03T10:36:54;0.70;;;0.70;;
74196;SDS011;62555;52.678;4.900;2023-03-03T10:39:35;0.60;;;0.60;;
74196;SDS011;62555;52.678;4.900;2023-03-03T10:47:58;1.00;;;0.90;;
74196;SDS011;62555;52.678;4.900;2023-03-03T10:50:49;1.70;;;0.90;;
74196;SDS011;62555;52.678;4.900;2023-03-03T10:56:03;3.60;;;2.25;;
74196;SDS011;62555;52.678;4.900;2023-03-03T11:01:15;1.85;;;1.40;;
74196;SDS011;62555;52.678;4.900;2023-03-03T11:03:57;4.97;;;1.80;;
74196;SDS011;62555;52.678;4.900;2023-03-03T11:14:56;2.25;;;2.15;;
74196;SDS011;62555;52.678;4.900;2023-03-03T11:29:28;2.92;;;2.60;;
74196;SDS011;62555;52.678;4.900;2023-03-03T11:34:25;2.35;;;2.15;;
74196;SDS011;62555;52.678;4.900;2023-03-03T11:37:09;2.35;;;2.13;;
74196;SDS011;62555;52.678;4.900;2023-03-03T11:39:42;2.70;;;2.45;;
74196;SDS011;62555;52.678;4.900;2023-03-03T11:44:59;3.70;;;2.80;;
74196;SDS011;62555;52.678;4.900;2023-03-03T11:47:28;4.05;;;2.35;;
74196;SDS011;62555;52.678;4.900;2023-03-03T11:55:59;3.35;;;2.45;;
74196;SDS011;62555;52.678;4.900;2023-03-03T11:58:33;2.13;;;1.92;;
74196;SDS011;62555;52.678;4.900;2023-03-03T12:06:32;2.20;;;2.00;;
74196;SDS011;62555;52.678;4.900;2023-03-03T12:12:14;3.75;;;1.98;;
74196;SDS011;62555;52.678;4.900;2023-03-03T12:15:05;2.90;;;2.08;;
74196;SDS011;62555;52.678;4.900;2023-03-03T12:17:38;3.58;;;2.05;;
74196;SDS011;62555;52.678;4.900;2023-03-03T12:20:18;3.15;;;2.10;;
74196;SDS011;62555;52.678;4.900;2023-03-03T12:25:39;2.40;;;2.20;;
74196;SDS011;62555;52.678;4.900;2023-03-03T12:30:42;2.22;;;2.03;;
74196;SDS011;62555;52.678;4.900;2023-03-03T12:39:04;1.40;;;1.30;;
74196;SDS011;62555;52.678;4.900;2023-03-03T12:41:51;3.05;;;2.13;;
74196;SDS011;62555;52.678;4.900;2023-03-03T12:44:29;1.73;;;1.60;;
74196;SDS011;62555;52.678;4.900;2023-03-03T12:47:18;3.03;;;1.70;;
74196;SDS011;62555;52.678;4.900;2023-03-03T12:50:10;2.80;;;1.63;;
74196;SDS011;62555;52.678;4.900;2023-03-03T12:52:53;2.25;;;1.70;;
74196;SDS011;62555;52.678;4.900;2023-03-03T12:58:23;1.65;;;1.27;;
74196;SDS011;62555;52.678;4.900;2023-03-03T13:01:01;2.50;;;1.42;;
74196;SDS011;62555;52.678;4.900;2023-03-03T13:04:10;2.22;;;1.50;;
74196;SDS011;62555;52.678;4.900;2023-03-03T13:06:49;1.75;;;1.30;;
74196;SDS011;62555;52.678;4.900;2023-03-03T13:17:57;2.45;;;1.40;;
74196;SDS011;62555;52.678;4.900;2023-03-03T13:23:03;2.17;;;1.50;;
74196;SDS011;62555;52.678;4.900;2023-03-03T13:26:06;1.90;;;1.40;;
74196;SDS011;62555;52.678;4.900;2023-03-03T13:28:36;3.78;;;1.73;;
74196;SDS011;62555;52.678;4.900;2023-03-03T13:31:11;2.05;;;1.35;;
74196;SDS011;62555;52.678;4.900;2023-03-03T13:33:39;1.95;;;1.42;;
74196;SDS011;62555;52.678;4.900;2023-03-03T13:36:14;2.75;;;1.80;;
74196;SDS011;62555;52.678;4.900;2023-03-03T13:38:45;1.45;;;1.27;;
74196;SDS011;62555;52.678;4.900;2023-03-03T13:44:08;3.80;;;1.40;;
74196;SDS011;62555;52.678;4.900;2023-03-03T13:46:39;2.50;;;1.80;;
74196;SDS011;62555;52.678;4.900;2023-03-03T13:52:10;2.95;;;1.42;;
74196;SDS011;62555;52.678;4.900;2023-03-03T13:54:51;2.72;;;1.50;;
74196;SDS011;62555;52.678;4.900;2023-03-03T14:14:15;1.70;;;1.27;;
74196;SDS011;62555;52.678;4.900;2023-03-03T14:19:38;2.25;;;1.23;;
74196;SDS011;62555;52.678;4.900;2023-03-03T14:22:16;2.97;;;1.40;;
74196;SDS011;62555;52.678;4.900;2023-03-03T14:27:33;3.08;;;1.48;;
74196;SDS011;62555;52.678;4.900;2023-03-03T14:30:42;3.88;;;1.80;;
74196;SDS011;62555;52.678;4.900;2023-03-03T14:35:34;3.35;;;2.08;;
74196;SDS011;62555;52.678;4.900;2023-03-03T14:38:17;3.50;;;2.33;;
74196;SDS011;62555;52.678;4.900;2023-03-03T14:40:44;3.15;;;2.45;;
74196;SDS011;62555;52.678;4.900;2023-03-03T14:45:57;7.20;;;5.70;;
74196;SDS011;62555;52.678;4.900;2023-03-03T14:48:51;8.70;;;7.85;;
74196;SDS011;62555;52.678;4.900;2023-03-03T14:54:26;13.70;;;9.75;;
74196;SDS011;62555;52.678;4.900;2023-03-03T14:57:01;11.77;;;10.23;;
74196;SDS011;62555;52.678;4.900;2023-03-03T14:59:31;14.57;;;10.02;;
74196;SDS011;62555;52.678;4.900;2023-03-03T15:04:23;12.13;;;9.07;;
74196;SDS011;62555;52.678;4.900;2023-03-03T15:09:30;17.00;;;9.32;;
74196;SDS011;62555;52.678;4.900;2023-03-03T15:12:19;14.02;;;8.90;;
74196;SDS011;62555;52.678;4.900;2023-03-03T15:14:47;12.88;;;9.30;;
74196;SDS011;62555;52.678;4.900;2023-03-03T15:17:24;13.95;;;9.43;;
74196;SDS011;62555;52.678;4.900;2023-03-03T15:25:30;16.00;;;8.52;;
74196;SDS011;62555;52.678;4.900;2023-03-03T15:28:06;12.30;;;7.85;;
74196;SDS011;62555;52.678;4.900;2023-03-03T15:50:37;13.13;;;7.25;;
74196;SDS011;62555;52.678;4.900;2023-03-03T16:03:33;11.57;;;6.93;;
74196;SDS011;62555;52.678;4.900;2023-03-03T16:06:04;10.02;;;6.85;;
74196;SDS011;62555;52.678;4.900;2023-03-03T16:31:36;7.30;;;5.10;;
74196;SDS011;62555;52.678;4.900;2023-03-03T16:39:54;9.25;;;5.55;;
74196;SDS011;62555;52.678;4.900;2023-03-03T16:50:30;6.03;;;4.43;;
74196;SDS011;62555;52.678;4.900;2023-03-03T16:58:54;7.30;;;4.57;;
74196;SDS011;62555;52.678;4.900;2023-03-03T17:13:17;6.13;;;3.97;;
74196;SDS011;62555;52.678;4.900;2023-03-03T17:16:01;5.80;;;3.28;;
74196;SDS011;62555;52.678;4.900;2023-03-03T17:21:30;4.20;;;2.80;;
74196;SDS011;62555;52.678;4.900;2023-03-03T17:24:17;7.78;;;3.65;;
74196;SDS011;62555;52.678;4.900;2023-03-03T17:42:46;5.97;;;4.10;;
74196;SDS011;62555;52.678;4.900;2023-03-03T17:45:16;5.95;;;3.53;;
74196;SDS011;62555;52.678;4.900;2023-03-03T17:47:45;7.75;;;3.25;;
74196;SDS011;62555;52.678;4.900;2023-03-03T17:50:38;4.03;;;3.20;;
74196;SDS011;62555;52.678;4.900;2023-03-03T18:07:02;4.63;;;3.00;;
74196;SDS011;62555;52.678;4.900;2023-03-03T18:12:34;7.07;;;2.80;;
74196;SDS011;62555;52.678;4.900;2023-03-03T18:18:01;6.75;;;3.13;;
74196;SDS011;62555;52.678;4.900;2023-03-03T18:20:38;6.28;;;3.63;;
74196;SDS011;62555;52.678;4.900;2023-03-03T18:36:57;4.97;;;2.00;;
74196;SDS011;62555;52.678;4.900;2023-03-03T18:44:47;5.55;;;2.20;;
74196;SDS011;62555;52.678;4.900;2023-03-03T18:47:13;3.85;;;2.05;;
74196;SDS011;62555;52.678;4.900;2023-03-03T18:52:21;5.47;;;2.30;;
74196;SDS011;62555;52.678;4.900;2023-03-03T18:57:37;7.22;;;2.20;;
74196;SDS011;62555;52.678;4.900;2023-03-03T19:00:20;4.35;;;1.92;;
74196;SDS011;62555;52.678;4.900;2023-03-03T19:02:51;5.13;;;1.95;;
74196;SDS011;62555;52.678;4.900;2023-03-03T19:05:22;6.93;;;2.40;;
74196;SDS011;62555;52.678;4.900;2023-03-03T19:08:15;4.22;;;1.85;;
74196;SDS011;62555;52.678;4.900;2023-03-03T19:10:56;3.55;;;2.00;;
74196;SDS011;62555;52.678;4.900;2023-03-03T19:23:50;3.63;;;1.60;;
74196;SDS011;62555;52.678;4.900;2023-03-03T19:28:46;4.63;;;2.00;;
74196;SDS011;62555;52.678;4.900;2023-03-03T19:47:30;5.65;;;2.45;;
74196;SDS011;62555;52.678;4.900;2023-03-03T20:00:20;2.60;;;1.30;;
74196;SDS011;62555;52.678;4.900;2023-03-03T20:08:36;5.68;;;1.90;;
74196;SDS011;62555;52.678;4.900;2023-03-03T20:19:48;4.57;;;1.83;;
74196;SDS011;62555;52.678;4.900;2023-03-03T20:51:44;4.57;;;1.83;;
74196;SDS011;62555;52.678;4.900;2023-03-03T20:54:15;6.00;;;1.80;;
74196;SDS011;62555;52.678;4.900;2023-03-03T20:59:37;7.60;;;1.65;;
74196;SDS011;62555;52.678;4.900;2023-03-03T21:05:12;4.85;;;1.58;;
74196;SDS011;62555;52.678;4.900;2023-03-03T21:07:55;4.65;;;1.58;;
74196;SDS011;62555;52.678;4.900;2023-03-03T21:10:28;5.13;;;1.88;;
74196;SDS011;62555;52.678;4.900;2023-03-03T21:12:56;3.75;;;1.92;;
74196;SDS011;62555;52.678;4.900;2023-03-03T21:15:24;5.38;;;1.70;;
74196;SDS011;62555;52.678;4.900;2023-03-03T21:17:52;5.57;;;1.73;;
74196;SDS011;62555;52.678;4.900;2023-03-03T21:22:48;3.78;;;1.25;;
74196;SDS011;62555;52.678;4.900;2023-03-03T21:30:58;5.20;;;1.25;;
74196;SDS011;62555;52.678;4.900;2023-03-03T21:33:41;5.55;;;1.90;;
74196;SDS011;62555;52.678;4.900;2023-03-03T21:36:08;3.75;;;1.45;;
74196;SDS011;62555;52.678;4.900;2023-03-03T21:38:35;5.07;;;1.70;;
74196;SDS011;62555;52.678;4.900;2023-03-03T21:41:01;3.58;;;1.10;;
74196;SDS011;62555;52.678;4.900;2023-03-03T21:43:34;5.93;;;1.60;;
74196;SDS011;62555;52.678;4.900;2023-03-03T21:46:00;5.53;;;1.30;;
74196;SDS011;62555;52.678;4.900;2023-03-03T21:48:26;2.85;;;1.58;;
74196;SDS011;62555;52.678;4.900;2023-03-03T21:50:51;3.70;;;1.73;;
74196;SDS011;62555;52.678;4.900;2023-03-03T21:53:16;4.13;;;1.70;;
74196;SDS011;62555;52.678;4.900;2023-03-03T21:55:43;5.50;;;2.08;;
74196;SDS011;62555;52.678;4.900;2023-03-03T21:58:12;4.20;;;1.40;;
74196;SDS011;62555;52.678;4.900;2023-03-03T22:00:41;2.53;;;1.40;;
74196;SDS011;62555;52.678;4.900;2023-03-03T22:03:09;6.45;;;1.98;;
74196;SDS011;62555;52.678;4.900;2023-03-03T22:05:35;4.00;;;1.40;;
74196;SDS011;62555;52.678;4.900;2023-03-03T22:08:00;3.25;;;1.40;;
74196;SDS011;62555;52.678;4.900;2023-03-03T22:10:26;6.03;;;1.45;;
74196;SDS011;62555;52.678;4.900;2023-03-03T22:12:51;4.45;;;1.23;;
74196;SDS011;62555;52.678;4.900;2023-03-03T22:15:17;7.82;;;1.35;;
74196;SDS011;62555;52.678;4.900;2023-03-03T22:17:42;4.07;;;1.15;;
74196;SDS011;62555;52.678;4.900;2023-03-03T22:20:08;4.63;;;1.50;;
74196;SDS011;62555;52.678;4.900;2023-03-03T22:22:34;6.28;;;1.67;;
74196;SDS011;62555;52.678;4.900;2023-03-03T22:25:00;6.05;;;1.80;;
74196;SDS011;62555;52.678;4.900;2023-03-03T22:27:25;7.55;;;1.40;;
74196;SDS011;62555;52.678;4.900;2023-03-03T22:29:51;4.20;;;1.60;;
74196;SDS011;62555;52.678;4.900;2023-03-03T22:32:16;5.88;;;1.85;;
74196;SDS011;62555;52.678;4.900;2023-03-03T22:34:41;4.60;;;1.33;;
74196;SDS011;62555;52.678;4.900;2023-03-03T22:37:06;5.05;;;1.38;;